createdAt,value
2018-12-14T00:01:57.552Z,91.00
2018-12-14T00:04:28.420Z,91.00
2018-12-14T00:06:59.312Z,91.00
2018-12-14T00:09:29.195Z,91.00
2018-12-14T00:11:57.996Z,91.00
2018-12-14T00:14:26.853Z,91.00
2018-12-14T00:16:55.863Z,91.00
2018-12-14T00:19:25.051Z,91.00
2018-12-14T00:21:53.934Z,91.00
2018-12-14T00:24:22.728Z,91.00
2018-12-14T00:26:51.508Z,91.00
2018-12-14T00:29:20.347Z,91.00
2018-12-14T00:31:49.164Z,91.00
2018-12-14T00:34:17.983Z,91.10
2018-12-14T00:36:46.884Z,91.10
2018-12-14T00:39:15.708Z,91.00
2018-12-14T00:41:44.510Z,91.00
2018-12-14T00:44:13.728Z,91.10
2018-12-14T00:46:44.484Z,91.10
2018-12-14T00:49:13.570Z,91.10
2018-12-14T00:51:42.407Z,91.10
2018-12-14T00:54:11.272Z,91.10
2018-12-14T00:56:40.127Z,91.10
2018-12-14T00:59:09.383Z,91.10
2018-12-14T01:01:39.007Z,91.10
2018-12-14T01:04:07.892Z,91.10
2018-12-14T01:06:36.707Z,91.20
2018-12-14T01:09:06.103Z,91.20
2018-12-14T01:11:37.026Z,91.20
2018-12-14T01:14:05.966Z,91.20
2018-12-14T01:16:34.856Z,91.20
2018-12-14T01:19:04.504Z,91.20
2018-12-14T01:21:33.336Z,91.20
2018-12-14T01:24:02.159Z,91.60
2018-12-14T01:26:30.957Z,91.20
2018-12-14T01:28:59.788Z,91.20
2018-12-14T01:31:28.604Z,91.20
2018-12-14T01:33:57.756Z,91.20
2018-12-14T01:36:26.552Z,91.20
2018-12-14T01:38:55.328Z,91.20
2018-12-14T01:41:24.148Z,91.20
2018-12-14T01:43:52.973Z,91.40
2018-12-14T01:46:21.761Z,91.50
2018-12-14T01:48:50.539Z,91.50
2018-12-14T01:51:19.352Z,91.60
2018-12-14T01:53:49.300Z,91.60
2018-12-14T01:56:18.179Z,91.70
2018-12-14T01:58:46.960Z,91.60
2018-12-14T02:01:15.896Z,91.60
2018-12-14T02:03:44.716Z,91.50
2018-12-14T02:06:14.592Z,91.90
2018-12-14T02:08:43.409Z,91.80
2018-12-14T02:11:12.227Z,91.90
2018-12-14T02:13:41.042Z,91.90
2018-12-14T02:16:09.847Z,91.90
2018-12-14T02:18:39.059Z,91.90
2018-12-14T02:21:07.979Z,91.90
2018-12-14T02:23:36.811Z,91.90
2018-12-14T02:26:05.645Z,91.90
2018-12-14T02:28:34.456Z,91.90
2018-12-14T02:31:03.325Z,91.90
2018-12-14T02:33:32.671Z,91.90
2018-12-14T02:36:01.489Z,91.90
2018-12-14T02:38:30.466Z,91.90
2018-12-14T02:41:00.167Z,91.90
2018-12-14T02:43:29.011Z,92.40
2018-12-14T02:45:57.804Z,92.50
2018-12-14T02:48:26.607Z,92.60
2018-12-14T02:50:55.402Z,92.60
2018-12-14T02:53:24.237Z,92.50
2018-12-14T02:55:53.376Z,92.40
2018-12-14T02:58:22.163Z,92.50
2018-12-14T03:00:50.988Z,92.40
2018-12-14T03:03:19.812Z,92.40
2018-12-14T03:05:48.617Z,92.40
2018-12-14T03:08:17.508Z,92.40
2018-12-14T03:10:46.328Z,92.40
2018-12-14T03:13:15.174Z,92.40
2018-12-14T03:15:43.964Z,92.30
2018-12-14T03:18:12.932Z,92.30
2018-12-14T03:20:41.728Z,92.30
2018-12-14T03:23:10.505Z,92.30
2018-12-14T03:25:39.321Z,92.30
2018-12-14T03:28:08.120Z,92.30
2018-12-14T03:30:36.905Z,92.30
2018-12-14T03:33:05.721Z,92.30
2018-12-14T03:35:34.575Z,92.30
2018-12-14T03:38:03.405Z,92.70
2018-12-14T03:40:32.271Z,92.30
2018-12-14T03:43:01.067Z,92.40
2018-12-14T03:45:30.220Z,92.30
2018-12-14T03:47:59.005Z,92.40
2018-12-14T03:50:27.807Z,92.40
2018-12-14T03:52:56.596Z,92.40
2018-12-14T03:55:25.376Z,92.40
2018-12-14T03:57:54.760Z,92.40
2018-12-14T04:00:23.762Z,92.40
2018-12-14T04:02:52.903Z,92.50
2018-12-14T04:05:22.045Z,92.50
2018-12-14T04:07:50.855Z,92.50
2018-12-14T04:10:19.780Z,92.50
2018-12-14T04:12:48.683Z,92.50
2018-12-14T04:15:17.523Z,92.50
2018-12-14T04:17:46.355Z,92.50
2018-12-14T04:20:15.150Z,92.40
2018-12-14T04:22:43.966Z,92.40
2018-12-14T04:25:12.758Z,92.50
2018-12-14T04:27:41.563Z,92.60
2018-12-14T04:30:10.404Z,92.70
2018-12-14T04:32:39.244Z,92.70
2018-12-14T04:35:08.778Z,92.60
2018-12-14T04:37:37.604Z,92.50
2018-12-14T04:40:07.441Z,92.50
2018-12-14T04:42:36.492Z,92.30
2018-12-14T04:45:05.778Z,92.30
2018-12-14T04:47:34.584Z,92.40
2018-12-14T04:50:03.447Z,92.50
2018-12-14T04:52:32.264Z,92.60
2018-12-14T04:55:01.077Z,92.70
2018-12-14T04:57:29.877Z,92.70
2018-12-14T04:59:58.732Z,92.80
2018-12-14T05:02:27.550Z,92.80
2018-12-14T05:04:56.359Z,92.80
2018-12-14T05:07:25.208Z,92.80
2018-12-14T05:09:54.003Z,92.80
2018-12-14T05:12:23.900Z,92.80
2018-12-14T05:14:52.951Z,93.00
2018-12-14T05:17:21.776Z,93.10
2018-12-14T05:19:50.556Z,93.10
2018-12-14T05:22:19.347Z,93.00
2018-12-14T05:24:48.128Z,92.90
2018-12-14T05:27:17.136Z,92.80
2018-12-14T05:29:46.452Z,92.70
2018-12-14T05:32:15.279Z,92.70
2018-12-14T05:34:44.075Z,92.60
2018-12-14T05:37:12.908Z,92.50
2018-12-14T05:39:41.743Z,92.40
2018-12-14T05:42:10.535Z,92.40
2018-12-14T05:44:39.688Z,92.30
2018-12-14T05:47:08.564Z,92.30
2018-12-14T05:49:37.388Z,92.30
2018-12-14T05:52:08.215Z,92.40
2018-12-14T05:54:37.000Z,92.40
2018-12-14T05:57:05.863Z,92.40
2018-12-14T05:59:34.655Z,92.40
2018-12-14T06:02:03.547Z,92.40
2018-12-14T06:04:32.696Z,92.30
2018-12-14T06:07:01.852Z,92.20
2018-12-14T06:09:30.639Z,92.30
2018-12-14T06:11:59.428Z,92.20
2018-12-14T06:14:28.279Z,92.10
2018-12-14T06:16:57.094Z,92.00
2018-12-14T06:19:25.958Z,92.10
2018-12-14T06:21:55.400Z,92.00
2018-12-14T06:24:24.183Z,92.00
2018-12-14T06:26:52.967Z,91.90
2018-12-14T06:29:21.784Z,91.90
2018-12-14T06:31:50.571Z,91.90
2018-12-14T06:34:19.387Z,91.90
2018-12-14T06:36:48.209Z,91.90
2018-12-14T06:39:17.155Z,91.90
2018-12-14T06:41:46.382Z,91.80
2018-12-14T06:44:15.319Z,91.80
2018-12-14T06:46:44.125Z,91.80
2018-12-14T06:49:12.907Z,91.80
2018-12-14T06:51:42.595Z,91.80
2018-12-14T06:54:11.472Z,91.90
2018-12-14T06:56:40.271Z,91.80
2018-12-14T06:59:09.080Z,91.70
2018-12-14T07:01:53.070Z,91.70
2018-12-14T07:04:22.448Z,91.70
2018-12-14T07:06:51.282Z,91.70
2018-12-14T07:09:20.143Z,91.60
2018-12-14T07:11:48.931Z,91.60
2018-12-14T07:14:17.720Z,91.60
2018-12-14T07:16:46.543Z,91.60
2018-12-14T07:19:15.411Z,91.50
2018-12-14T07:21:44.664Z,91.50
2018-12-14T07:24:13.504Z,91.50
2018-12-14T07:26:43.361Z,91.70
2018-12-14T07:29:12.911Z,91.70
2018-12-14T07:31:41.760Z,91.70
2018-12-14T07:34:10.627Z,91.60
2018-12-14T07:36:40.468Z,92.00
2018-12-14T07:39:09.275Z,91.50
2018-12-14T07:41:38.280Z,91.40
2018-12-14T07:44:07.120Z,91.30
2018-12-14T07:46:36.118Z,91.30
2018-12-14T07:49:04.999Z,91.20
2018-12-14T07:51:33.983Z,91.10
2018-12-14T07:54:02.871Z,91.00
2018-12-14T07:56:31.668Z,91.00
2018-12-14T07:59:31.359Z,91.00
2018-12-14T08:02:00.418Z,91.00
2018-12-14T08:04:30.206Z,91.00
2018-12-14T08:06:59.727Z,90.90
2018-12-14T08:09:29.139Z,90.80
2018-12-14T08:11:57.988Z,90.70
2018-12-14T08:14:26.813Z,90.70
2018-12-14T08:16:56.570Z,90.60
2018-12-14T08:19:27.883Z,90.50
2018-12-14T08:21:56.720Z,90.40
2018-12-14T08:24:25.543Z,90.30
2018-12-14T08:26:54.355Z,90.30
2018-12-14T08:29:23.369Z,90.30
2018-12-14T08:31:52.258Z,90.30
2018-12-14T08:34:21.296Z,90.30
2018-12-14T08:36:50.116Z,90.20
2018-12-14T08:39:19.144Z,90.20
2018-12-14T08:41:48.701Z,90.10
2018-12-14T08:44:17.504Z,90.00
2018-12-14T08:46:46.444Z,90.00
2018-12-14T08:49:15.376Z,89.70
2018-12-14T08:51:44.179Z,89.50
2018-12-14T08:54:13.116Z,89.40
2018-12-14T08:56:43.268Z,89.60
2018-12-14T08:59:12.463Z,89.00
2018-12-14T09:01:41.257Z,88.80
2018-12-14T09:04:10.039Z,88.80
2018-12-14T09:06:39.038Z,88.70
2018-12-14T09:09:08.240Z,87.70
2018-12-14T09:11:37.084Z,88.50
2018-12-14T09:14:05.934Z,88.40
2018-12-14T09:16:34.809Z,88.20
2018-12-14T09:19:03.785Z,88.10
2018-12-14T09:21:32.743Z,87.90
2018-12-14T09:24:01.757Z,87.70
2018-12-14T09:26:30.611Z,87.70
2018-12-14T09:28:59.688Z,87.90
2018-12-14T09:31:28.832Z,87.80
2018-12-14T09:33:57.680Z,87.80
2018-12-14T09:36:26.528Z,87.90
2018-12-14T09:38:55.507Z,87.80
2018-12-14T09:41:24.380Z,87.70
2018-12-14T09:43:54.480Z,87.60
2018-12-14T09:46:23.561Z,87.30
2018-12-14T09:48:52.424Z,87.30
2018-12-14T09:51:21.294Z,87.30
2018-12-14T09:53:50.608Z,87.40
2018-12-14T09:56:19.412Z,87.40
2018-12-14T09:58:48.211Z,87.40
2018-12-14T10:01:17.050Z,87.30
2018-12-14T10:03:46.096Z,87.30
2018-12-14T10:06:16.356Z,88.00
2018-12-14T10:08:45.295Z,87.00
2018-12-14T10:11:14.419Z,87.00
2018-12-14T10:13:43.817Z,87.10
2018-12-14T10:16:12.987Z,87.30
2018-12-14T10:18:42.095Z,87.30
2018-12-14T10:21:10.923Z,87.40
2018-12-14T10:23:40.239Z,87.50
2018-12-14T10:26:09.143Z,87.60
2018-12-14T10:28:38.114Z,87.80
2018-12-14T10:31:06.908Z,88.00
2018-12-14T10:33:35.800Z,88.20
2018-12-14T10:36:04.643Z,88.20
2018-12-14T10:38:33.825Z,88.20
2018-12-14T10:41:07.245Z,88.20
2018-12-14T10:43:36.319Z,88.00
2018-12-14T10:46:05.157Z,87.70
2018-12-14T10:48:33.999Z,87.50
2018-12-14T10:51:02.912Z,87.10
2018-12-14T10:53:31.736Z,86.80
2018-12-14T10:56:00.548Z,86.70
2018-12-14T10:58:29.405Z,86.60
2018-12-14T11:01:03.718Z,86.50
2018-12-14T11:03:32.564Z,86.50
2018-12-14T11:06:16.722Z,86.50
2018-12-14T11:08:45.622Z,86.30
2018-12-14T11:11:14.517Z,86.20
2018-12-14T11:13:43.336Z,86.10
2018-12-14T11:16:12.148Z,86.00
2018-12-14T11:18:41.061Z,85.80
2018-12-14T11:21:09.856Z,85.70
2018-12-14T11:23:38.688Z,85.30
2018-12-14T11:26:07.578Z,85.00
2018-12-14T11:28:36.536Z,84.70
2018-12-14T11:31:05.359Z,84.50
2018-12-14T11:33:34.622Z,84.20
2018-12-14T11:36:03.768Z,84.10
2018-12-14T11:38:32.582Z,84.00
2018-12-14T11:41:01.395Z,83.80
2018-12-14T11:43:30.358Z,83.70
2018-12-14T11:45:59.175Z,83.30
2018-12-14T11:48:28.017Z,83.10
2018-12-14T11:50:57.290Z,83.00
2018-12-14T11:53:26.107Z,82.80
2018-12-14T11:55:54.957Z,82.80
2018-12-14T11:58:23.829Z,82.60
2018-12-14T12:00:53.008Z,82.50
2018-12-14T12:03:22.307Z,82.30
2018-12-14T12:05:51.106Z,82.10
2018-12-14T12:08:20.137Z,81.90
2018-12-14T12:10:48.924Z,81.90
2018-12-14T12:13:17.803Z,81.90
2018-12-14T12:15:46.659Z,82.00
2018-12-14T12:18:16.680Z,81.90
2018-12-14T12:20:45.523Z,81.80
2018-12-14T12:23:14.355Z,81.70
2018-12-14T12:25:43.191Z,81.70
2018-12-14T12:28:12.449Z,81.70
2018-12-14T12:30:41.271Z,81.80
2018-12-14T12:33:10.078Z,81.80
2018-12-14T12:35:38.880Z,81.60
2018-12-14T12:38:24.587Z,81.50
2018-12-14T12:40:53.540Z,81.60
2018-12-14T12:43:22.589Z,82.50
2018-12-14T12:45:51.415Z,81.40
2018-12-14T12:48:20.203Z,81.10
2018-12-14T12:50:49.059Z,80.90
2018-12-14T12:53:18.692Z,80.60
2018-12-14T12:55:47.891Z,80.60
2018-12-14T12:58:16.984Z,79.60
2018-12-14T13:00:45.775Z,79.80
2018-12-14T13:03:14.861Z,80.00
2018-12-14T13:05:43.716Z,80.30
2018-12-14T13:08:12.897Z,80.70
2018-12-14T13:10:41.924Z,80.80
2018-12-14T13:13:10.912Z,80.90
2018-12-14T13:15:39.726Z,81.00
2018-12-14T13:18:08.537Z,81.10
2018-12-14T13:20:38.776Z,81.00
2018-12-14T13:23:07.606Z,81.00
2018-12-14T13:25:37.119Z,81.00
2018-12-14T13:28:06.720Z,81.10
2018-12-14T13:30:36.789Z,81.10
2018-12-14T13:33:06.235Z,81.30
2018-12-14T13:35:35.283Z,81.10
2018-12-14T13:38:04.170Z,81.30
2018-12-14T13:40:34.171Z,81.10
2018-12-14T13:43:03.918Z,81.20
2018-12-14T13:45:33.632Z,81.30
2018-12-14T13:48:03.287Z,81.20
2018-12-14T13:50:33.345Z,81.30
2018-12-14T13:53:02.214Z,81.10
2018-12-14T13:55:31.234Z,81.10
2018-12-14T13:58:00.155Z,81.10
2018-12-14T14:00:29.848Z,81.10
2018-12-14T14:02:58.820Z,81.10
2018-12-14T14:05:28.164Z,81.20
2018-12-14T14:07:57.129Z,81.30
2018-12-14T14:10:26.542Z,81.40
2018-12-14T14:12:55.692Z,81.50
2018-12-14T14:15:24.546Z,81.60
2018-12-14T14:17:53.969Z,81.70
2018-12-14T14:20:22.841Z,81.80
2018-12-14T14:22:51.836Z,81.80
2018-12-14T14:25:20.753Z,81.90
2018-12-14T14:27:51.744Z,81.90
2018-12-14T14:30:21.126Z,82.00
2018-12-14T14:32:50.636Z,82.00
2018-12-14T14:35:19.475Z,82.10
2018-12-14T14:37:48.332Z,82.10
2018-12-14T14:40:17.454Z,82.10
2018-12-14T14:42:46.341Z,82.00
2018-12-14T14:45:15.164Z,81.80
2018-12-14T14:47:44.012Z,81.80
2018-12-14T14:50:14.657Z,81.70
2018-12-14T14:52:43.505Z,81.60
2018-12-14T14:55:12.339Z,81.40
2018-12-14T14:57:41.441Z,81.30
2018-12-14T15:00:10.256Z,81.30
2018-12-14T15:02:39.415Z,81.20
2018-12-14T15:05:08.324Z,81.20
2018-12-14T15:07:37.195Z,81.20
2018-12-14T15:10:06.852Z,81.30
2018-12-14T15:12:35.708Z,81.40
2018-12-14T15:15:06.802Z,81.50
2018-12-14T15:17:37.357Z,81.50
2018-12-14T15:20:06.244Z,82.60
2018-12-14T15:22:35.160Z,81.80
2018-12-14T15:25:03.999Z,81.90
2018-12-14T15:27:32.836Z,82.00
2018-12-14T15:30:01.686Z,82.20
2018-12-14T15:32:30.985Z,82.30
2018-12-14T15:35:00.177Z,82.40
2018-12-14T15:37:29.061Z,82.50
2018-12-14T15:39:57.903Z,82.50
2018-12-14T15:42:26.747Z,82.70
2018-12-14T15:44:55.588Z,82.80
2018-12-14T15:47:24.495Z,83.00
2018-12-14T15:49:53.345Z,83.20
2018-12-14T15:52:22.215Z,83.50
2018-12-14T15:54:51.335Z,83.70
2018-12-14T15:57:21.252Z,84.00
2018-12-14T15:59:50.099Z,84.30
2018-12-14T16:02:18.918Z,84.50
2018-12-14T16:04:48.240Z,84.80
2018-12-14T16:07:17.218Z,85.10
2018-12-14T16:09:46.100Z,86.50
2018-12-14T16:12:16.447Z,86.80
2018-12-14T16:14:45.410Z,87.00
2018-12-14T16:17:14.333Z,86.90
2018-12-14T16:19:43.153Z,87.00
2018-12-14T16:22:12.880Z,87.00
2018-12-14T16:25:13.312Z,87.10
2018-12-14T16:27:42.404Z,87.30
2018-12-14T16:30:11.753Z,87.20
2018-12-14T16:32:41.607Z,88.20
2018-12-14T16:35:10.511Z,87.40
2018-12-14T16:37:43.715Z,87.50
2018-12-14T16:40:14.388Z,87.50
2018-12-14T16:42:44.265Z,87.60
2018-12-14T16:45:13.141Z,87.60
2018-12-14T16:47:57.484Z,89.40
2018-12-14T16:50:28.491Z,89.40
2018-12-14T16:52:57.474Z,89.20
2018-12-14T16:55:26.311Z,89.10
2018-12-14T16:57:55.984Z,88.90
2018-12-14T17:00:24.976Z,88.80
2018-12-14T17:02:54.340Z,88.80
2018-12-14T17:05:25.656Z,88.80
2018-12-14T17:07:54.519Z,89.50
2018-12-14T17:10:23.481Z,88.60
2018-12-14T17:12:52.297Z,88.50
2018-12-14T17:15:21.588Z,88.50
2018-12-14T17:17:50.412Z,88.50
2018-12-14T17:20:19.308Z,88.50
2018-12-14T17:22:48.113Z,88.50
2018-12-14T17:25:17.041Z,88.60
2018-12-14T17:27:46.255Z,88.70
2018-12-14T17:30:15.158Z,88.70
2018-12-14T17:32:44.184Z,88.80
2018-12-14T17:35:13.151Z,88.80
2018-12-14T17:37:41.980Z,88.90
2018-12-14T17:40:12.585Z,89.00
2018-12-14T17:42:43.670Z,89.20
2018-12-14T17:45:12.849Z,89.10
2018-12-14T17:47:42.028Z,89.20
2018-12-14T17:50:11.272Z,89.20
2018-12-14T17:52:40.661Z,89.20
2018-12-14T17:55:09.582Z,89.30
2018-12-14T17:57:38.407Z,89.30
2018-12-14T18:00:07.706Z,89.30
2018-12-14T18:02:36.532Z,89.30
2018-12-14T18:05:05.717Z,90.00
2018-12-14T18:07:34.546Z,89.20
2018-12-14T18:10:03.603Z,89.10
2018-12-14T18:12:32.472Z,89.00
2018-12-14T18:15:01.324Z,89.10
2018-12-14T18:17:30.340Z,89.10
2018-12-14T18:19:59.690Z,89.10
2018-12-14T18:22:30.223Z,89.10
2018-12-14T18:24:59.425Z,88.90
2018-12-14T18:27:28.340Z,89.00
2018-12-14T18:29:57.928Z,89.00
2018-12-14T18:32:26.760Z,88.90
2018-12-14T18:34:55.649Z,88.90
2018-12-14T18:37:24.911Z,88.90
2018-12-14T18:39:53.744Z,88.80
2018-12-14T18:42:22.559Z,88.80
2018-12-14T18:44:51.380Z,88.70
2018-12-14T18:47:20.228Z,88.70
2018-12-14T18:49:49.071Z,88.70
2018-12-14T18:52:18.091Z,88.60
2018-12-14T18:54:46.928Z,88.60
2018-12-14T18:57:15.775Z,88.60
2018-12-14T18:59:44.672Z,88.60
2018-12-14T19:02:13.525Z,89.50
2018-12-14T19:04:42.374Z,88.60
2018-12-14T19:07:11.542Z,88.60
2018-12-14T19:09:41.024Z,88.60
2018-12-14T19:12:09.891Z,89.00
2018-12-14T19:14:38.751Z,89.20
2018-12-14T19:17:08.749Z,89.10
2018-12-14T19:19:37.680Z,89.10
2018-12-14T19:22:06.508Z,88.90
2018-12-14T19:24:35.360Z,88.90
2018-12-14T19:27:04.204Z,88.90
2018-12-14T19:29:33.287Z,88.80
2018-12-14T19:32:02.179Z,88.80
2018-12-14T19:34:31.534Z,88.70
2018-12-14T19:37:01.049Z,88.60
2018-12-14T19:39:30.105Z,88.80
2018-12-14T19:41:58.984Z,88.80
2018-12-14T19:44:28.019Z,88.70
2018-12-14T19:46:56.869Z,88.70
2018-12-14T19:49:26.904Z,88.90
2018-12-14T19:51:56.015Z,89.00
2018-12-14T19:54:25.053Z,89.00
2018-12-14T19:56:54.243Z,89.00
2018-12-14T19:59:23.116Z,88.90
2018-12-14T20:01:52.012Z,88.80
2018-12-14T20:04:20.897Z,88.80
2018-12-14T20:06:49.997Z,88.70
2018-12-14T20:09:18.888Z,88.70
2018-12-14T20:11:47.769Z,88.70
2018-12-14T20:14:17.988Z,88.70
2018-12-14T20:16:47.303Z,88.80
2018-12-14T20:19:16.192Z,88.80
2018-12-14T20:21:45.084Z,88.80
2018-12-14T20:24:14.052Z,88.50
2018-12-14T20:26:43.859Z,88.70
2018-12-14T20:29:12.843Z,88.90
2018-12-14T20:31:41.769Z,89.20
2018-12-14T20:34:10.613Z,90.10
2018-12-14T20:36:40.336Z,90.30
2018-12-14T20:39:09.196Z,90.30
2018-12-14T20:41:38.151Z,90.40
2018-12-14T20:44:08.164Z,90.40
2018-12-14T20:46:38.286Z,90.50
2018-12-14T20:49:10.500Z,90.50
2018-12-14T20:51:42.694Z,90.50
2018-12-14T20:54:12.363Z,90.60
2018-12-14T20:56:43.227Z,90.70
2018-12-14T20:59:12.539Z,90.60
2018-12-14T21:01:44.284Z,90.60
2018-12-14T21:04:15.703Z,90.60
2018-12-14T21:06:44.939Z,90.60
2018-12-14T21:09:14.281Z,90.70
2018-12-14T21:11:44.154Z,90.70
2018-12-14T21:14:15.139Z,90.70
2018-12-14T21:16:44.554Z,90.70
2018-12-14T21:19:15.361Z,90.70
2018-12-14T21:21:45.237Z,90.70
2018-12-14T21:24:15.435Z,90.80
2018-12-14T21:26:46.230Z,90.80
2018-12-14T21:29:17.289Z,90.80
2018-12-14T21:31:47.009Z,90.80
2018-12-14T21:34:17.769Z,90.80
2018-12-14T21:36:46.605Z,90.90
2018-12-14T21:39:15.716Z,90.80
2018-12-14T21:41:44.643Z,90.90
2018-12-14T21:44:13.479Z,90.90
2018-12-14T21:46:42.329Z,90.90
2018-12-14T21:49:12.133Z,90.90
2018-12-14T21:51:40.952Z,90.90
2018-12-14T21:54:09.809Z,90.90
2018-12-14T21:56:38.656Z,90.90
2018-12-14T21:59:07.500Z,90.90
2018-12-14T22:01:36.424Z,90.90
2018-12-14T22:04:05.253Z,91.30
2018-12-14T22:06:34.144Z,91.30
2018-12-14T22:09:08.292Z,91.30
2018-12-14T22:11:38.545Z,91.30
2018-12-14T22:14:07.408Z,91.30
2018-12-14T22:16:39.207Z,91.20
2018-12-14T22:19:07.184Z,91.20
2018-12-14T22:21:36.030Z,91.10
2018-12-14T22:24:04.864Z,91.10
2018-12-14T22:26:33.733Z,91.10
2018-12-14T22:29:19.476Z,91.10
2018-12-14T22:31:48.304Z,91.10
2018-12-14T22:34:17.102Z,91.00
2018-12-14T22:36:45.952Z,91.00
2018-12-14T22:39:15.008Z,91.00
2018-12-14T22:41:43.920Z,91.10
2018-12-14T22:44:12.792Z,91.00
2018-12-14T22:46:45.620Z,91.00
2018-12-14T22:49:12.527Z,91.00
2018-12-14T22:51:41.392Z,91.00
2018-12-14T22:54:10.288Z,91.00
2018-12-14T22:56:39.168Z,91.00
2018-12-14T22:59:07.973Z,91.00
2018-12-14T23:01:36.810Z,91.00
2018-12-14T23:04:05.776Z,91.00
2018-12-14T23:06:34.644Z,91.00
2018-12-14T23:09:04.771Z,91.10
2018-12-14T23:11:36.242Z,91.10
2018-12-14T23:14:05.078Z,91.20
2018-12-14T23:16:33.963Z,91.10
2018-12-14T23:19:02.795Z,91.10
2018-12-14T23:21:31.603Z,91.00
2018-12-14T23:24:00.391Z,91.00
2018-12-14T23:26:29.235Z,91.00
2018-12-14T23:28:58.093Z,91.00
2018-12-14T23:31:27.960Z,90.90
2018-12-14T23:33:56.787Z,90.90
2018-12-14T23:36:25.577Z,90.90
2018-12-14T23:38:54.422Z,90.80
2018-12-14T23:41:23.236Z,90.80
2018-12-14T23:43:52.023Z,90.80
2018-12-14T23:46:20.844Z,90.70
2018-12-14T23:48:49.936Z,90.70
2018-12-14T23:51:18.777Z,90.60
2018-12-14T23:53:47.562Z,90.60
2018-12-14T23:56:16.376Z,90.60
2018-12-14T23:58:47.276Z,90.60
